Time;durP1;ratioP1;P1;durP2;ratioP2;P2;SDS_P1;SDS_P2;PMS_P1;PMS_P2;Temp;Humidity;BMP_temperature;BMP_pressure;BME280_temperature;BME280_humidity;BME280_pressure;Samples;Min_cycle;Max_cycle;Signal;HPM_P1;HPM_P2
2023/08/29 00:00:26;;;;;;;6.13;4.60;;;16.90;91.80;;;;;;4997677;28;20192;-87
2023/08/29 00:02:55;;;;;;;6.37;5.07;;;16.90;92.40;;;;;;4998608;28;20178;-91
2023/08/29 00:05:20;;;;;;;5.87;4.57;;;16.90;92.70;;;;;;5000561;28;20234;-87
2023/08/29 00:07:46;;;;;;;5.70;4.40;;;16.90;92.90;;;;;;5016076;28;20177;-88
2023/08/29 00:10:12;;;;;;;5.23;4.73;;;16.90;93.70;;;;;;4998718;28;20242;-86
2023/08/29 00:12:41;;;;;;;5.47;4.90;;;16.80;94.10;;;;;;4998078;28;20212;-87
2023/08/29 00:15:10;;;;;;;5.73;4.90;;;16.80;95.40;;;;;;4997129;28;20296;-87
2023/08/29 00:17:36;;;;;;;7.37;5.23;;;17.00;94.90;;;;;;4996630;28;20712;-87
2023/08/29 00:20:02;;;;;;;5.63;4.90;;;17.10;92.60;;;;;;4995824;28;20185;-87
2023/08/29 00:22:28;;;;;;;7.57;5.00;;;17.00;92.10;;;;;;4996497;28;20199;-87
2023/08/29 00:24:56;;;;;;;5.57;5.00;;;16.90;92.40;;;;;;4996730;28;20184;-87
2023/08/29 00:27:22;;;;;;;6.30;4.93;;;17.00;92.50;;;;;;4997390;28;20695;-87
2023/08/29 00:29:48;;;;;;;7.20;5.37;;;17.10;91.80;;;;;;4996400;28;20210;-87
2023/08/29 00:32:14;;;;;;;6.87;5.63;;;17.10;91.50;;;;;;5012811;28;20197;-87
2023/08/29 00:34:40;;;;;;;9.00;5.70;;;17.20;91.40;;;;;;4994872;28;20389;-88
2023/08/29 00:37:07;;;;;;;6.77;5.90;;;17.40;90.20;;;;;;4996675;28;20220;-87
2023/08/29 00:39:33;;;;;;;7.23;5.67;;;17.40;87.20;;;;;;4995645;28;20178;-87
2023/08/29 00:41:59;;;;;;;6.10;5.50;;;17.50;79.50;;;;;;4996859;28;20539;-87
2023/08/29 00:44:24;;;;;;;7.10;6.40;;;17.60;75.30;;;;;;4995584;28;20703;-87
2023/08/29 00:46:51;;;;;;;6.40;5.40;;;17.60;74.50;;;;;;4995806;28;20194;-88
2023/08/29 00:49:26;;;;;;;8.23;6.37;;;17.70;73.30;;;;;;4997077;28;20190;-87
2023/08/29 00:51:53;;;;;;;8.93;6.57;;;17.70;69.80;;;;;;5015395;28;20305;-88
2023/08/29 00:54:20;;;;;;;7.63;6.90;;;17.70;68.10;;;;;;4996810;28;20185;-87
2023/08/29 00:56:48;;;;;;;7.87;7.10;;;17.70;69.00;;;;;;4997310;28;20252;-87
2023/08/29 00:59:14;;;;;;;8.60;7.37;;;17.60;70.30;;;;;;5015005;28;20158;-87
2023/08/29 01:01:40;;;;;;;7.77;7.07;;;17.60;71.10;;;;;;4996846;28;20176;-87
2023/08/29 01:04:09;;;;;;;9.33;7.40;;;17.60;71.30;;;;;;5014998;28;20178;-87
2023/08/29 01:06:37;;;;;;;9.60;8.40;;;17.50;70.50;;;;;;4996640;28;20183;-91
2023/08/29 01:09:06;;;;;;;9.23;8.23;;;17.50;71.30;;;;;;4998371;28;20189;-89
2023/08/29 01:11:48;;;;;;;9.87;8.33;;;17.40;71.90;;;;;;4996575;28;20178;-91
2023/08/29 01:14:42;;;;;;;10.07;9.13;;;17.40;74.60;;;;;;4997694;28;20198;-90
2023/08/29 01:17:19;;;;;;;9.27;8.40;;;17.30;76.40;;;;;;4998963;28;20550;-90
2023/08/29 01:19:50;;;;;;;10.70;8.10;;;17.20;78.20;;;;;;4998671;28;20193;-88
2023/08/29 01:22:40;;;;;;;9.27;8.00;;;17.20;81.50;;;;;;5016893;28;20174;-89
2023/08/29 01:25:41;;;;;;;9.23;7.87;;;17.30;82.50;;;;;;5000757;28;20180;-90
2023/08/29 01:28:07;;;;;;;9.13;8.03;;;17.20;82.40;;;;;;5012361;28;20183;-91
2023/08/29 01:30:33;;;;;;;7.67;6.93;;;17.00;86.90;;;;;;5000181;28;20188;-92
2023/08/29 01:33:00;;;;;;;9.40;7.03;;;17.00;90.00;;;;;;5000075;28;20178;-90
2023/08/29 01:35:26;;;;;;;8.83;7.20;;;17.00;91.30;;;;;;4996260;28;20170;-91
2023/08/29 01:37:52;;;;;;;8.07;7.37;;;17.10;91.10;;;;;;5013328;28;20249;-90
2023/08/29 01:40:17;;;;;;;8.73;7.83;;;17.20;90.80;;;;;;4997231;28;20227;-93
2023/08/29 01:42:43;;;;;;;10.50;8.40;;;17.30;89.20;;;;;;4996784;28;20178;-91
2023/08/29 01:45:09;;;;;;;11.63;8.43;;;17.40;86.80;;;;;;4996216;28;20174;-90
2023/08/29 01:47:35;;;;;;;9.10;8.10;;;17.50;82.00;;;;;;4996328;28;20642;-91
2023/08/29 01:50:04;;;;;;;10.90;8.00;;;17.40;80.70;;;;;;4997610;28;20170;-91
2023/08/29 01:52:31;;;;;;;8.87;7.97;;;17.40;81.60;;;;;;4997043;28;20178;-91
2023/08/29 01:54:57;;;;;;;8.73;7.87;;;17.50;79.70;;;;;;5000187;28;20170;-91
2023/08/29 01:57:26;;;;;;;10.00;8.60;;;17.50;79.40;;;;;;5003948;28;20233;-89
2023/08/29 01:59:52;;;;;;;8.43;7.63;;;17.50;78.60;;;;;;5010530;28;20321;-88
2023/08/29 02:02:19;;;;;;;9.97;8.43;;;17.50;77.60;;;;;;5028360;28;20177;-88
2023/08/29 02:04:45;;;;;;;9.00;8.10;;;17.50;78.50;;;;;;5011462;28;20201;-90
2023/08/29 02:07:10;;;;;;;8.50;7.60;;;17.50;79.00;;;;;;5022491;28;20721;-91
2023/08/29 02:09:36;;;;;;;10.03;8.23;;;17.50;78.40;;;;;;4996929;28;20217;-90
2023/08/29 02:12:02;;;;;;;9.33;8.20;;;17.40;78.60;;;;;;5014123;28;20212;-92
2023/08/29 02:14:28;;;;;;;9.87;8.87;;;17.50;76.80;;;;;;4996284;28;20235;-88
2023/08/29 02:16:53;;;;;;;10.20;9.27;;;17.50;73.10;;;;;;4997175;28;20210;-90
2023/08/29 02:19:19;;;;;;;10.80;9.70;;;17.60;68.60;;;;;;5008145;28;20189;-91
2023/08/29 02:21:45;;;;;;;10.37;9.37;;;17.60;67.10;;;;;;5005252;28;20176;-90
2023/08/29 02:24:11;;;;;;;9.90;9.00;;;17.50;68.30;;;;;;5002638;28;20634;-91
2023/08/29 02:26:36;;;;;;;11.47;10.20;;;17.30;71.90;;;;;;4996435;28;20193;-90
2023/08/29 02:29:02;;;;;;;10.40;9.40;;;17.20;75.20;;;;;;4996510;28;20188;-91
2023/08/29 02:31:28;;;;;;;11.30;10.20;;;17.10;79.10;;;;;;4996441;28;20183;-91
2023/08/29 02:33:53;;;;;;;9.80;8.80;;;17.00;85.10;;;;;;5003519;28;20176;-88
2023/08/29 02:36:23;;;;;;;10.40;9.40;;;17.00;88.80;;;;;;5024034;28;20205;-91
2023/08/29 02:38:49;;;;;;;9.57;8.57;;;17.10;89.90;;;;;;4999237;28;20721;-90
2023/08/29 02:41:16;;;;;;;11.60;10.50;;;17.10;89.00;;;;;;4996817;28;20178;-89
2023/08/29 02:43:42;;;;;;;9.80;8.90;;;17.30;84.90;;;;;;4996808;28;20174;-91
2023/08/29 02:46:07;;;;;;;12.40;10.00;;;17.20;83.70;;;;;;4997822;28;20199;-91
2023/08/29 02:48:33;;;;;;;12.43;10.20;;;17.10;86.40;;;;;;5000848;28;20181;-90
2023/08/29 02:50:59;;;;;;;12.60;9.80;;;17.00;89.00;;;;;;5000569;28;20212;-90
2023/08/29 02:53:24;;;;;;;14.70;11.30;;;17.10;85.20;;;;;;5003376;28;20192;-90
2023/08/29 02:55:51;;;;;;;12.23;10.93;;;17.20;81.70;;;;;;5005772;28;20171;-86
2023/08/29 02:58:18;;;;;;;11.83;10.63;;;17.20;79.90;;;;;;5013996;28;20187;-85
2023/08/29 03:00:43;;;;;;;13.43;12.17;;;17.20;80.20;;;;;;5012585;28;20176;-86
2023/08/29 03:03:09;;;;;;;11.87;10.73;;;17.10;84.30;;;;;;5005170;28;20186;-88
2023/08/29 03:05:35;;;;;;;11.97;10.87;;;17.00;88.80;;;;;;4998230;28;20179;-86
2023/08/29 03:08:04;;;;;;;13.80;12.40;;;16.80;91.60;;;;;;4997300;28;20268;-86
2023/08/29 03:10:31;;;;;;;13.73;12.33;;;16.80;93.20;;;;;;5001075;28;20536;-92
2023/08/29 03:12:59;;;;;;;13.53;12.17;;;17.00;93.90;;;;;;5000647;28;20189;-90
2023/08/29 03:15:25;;;;;;;15.43;13.93;;;17.00;93.10;;;;;;5020685;28;20195;-87
2023/08/29 03:18:00;;;;;;;17.50;15.80;;;17.10;91.70;;;;;;5014139;28;20291;-89
2023/08/29 03:20:25;;;;;;;17.97;16.07;;;17.10;87.30;;;;;;5019434;28;20177;-88
2023/08/29 03:22:53;;;;;;;19.80;17.03;;;17.10;84.80;;;;;;5017770;28;20217;-90
2023/08/29 03:25:22;;;;;;;18.87;16.97;;;17.20;81.80;;;;;;5022001;28;20182;-87
2023/08/29 03:27:48;;;;;;;18.60;16.80;;;17.20;82.30;;;;;;5011255;28;20281;-87
2023/08/29 03:30:14;;;;;;;18.63;16.37;;;17.10;84.70;;;;;;5016137;28;20205;-87
2023/08/29 03:32:40;;;;;;;18.73;16.70;;;16.90;88.90;;;;;;4998226;28;20181;-86
2023/08/29 03:35:07;;;;;;;18.10;16.20;;;16.90;90.20;;;;;;5019818;28;20153;-90
2023/08/29 03:37:33;;;;;;;18.47;16.67;;;16.90;90.80;;;;;;5002886;28;20696;-91
2023/08/29 03:39:59;;;;;;;19.00;17.00;;;16.80;91.60;;;;;;5002542;28;20171;-89
2023/08/29 03:42:26;;;;;;;17.93;16.13;;;16.90;91.40;;;;;;4999724;28;20236;-91
2023/08/29 03:44:51;;;;;;;20.57;18.47;;;17.00;88.30;;;;;;5016213;28;20178;-90
2023/08/29 03:47:17;;;;;;;20.77;18.57;;;17.00;85.10;;;;;;4999348;28;20255;-91
2023/08/29 03:49:43;;;;;;;21.40;19.13;;;17.00;84.10;;;;;;5018670;28;20194;-88
2023/08/29 03:52:09;;;;;;;23.03;20.63;;;16.90;83.60;;;;;;5022501;28;20172;-85
2023/08/29 03:54:34;;;;;;;21.20;18.97;;;16.80;86.80;;;;;;5022267;28;20196;-88
2023/08/29 03:57:00;;;;;;;19.33;16.90;;;16.70;90.50;;;;;;5022619;28;20225;-86
2023/08/29 03:59:26;;;;;;;20.73;18.63;;;16.60;92.30;;;;;;5022549;28;20161;-84
2023/08/29 04:01:54;;;;;;;20.77;18.67;;;16.60;92.70;;;;;;5027454;28;20196;-86
2023/08/29 04:04:23;;;;;;;19.77;17.57;;;16.70;91.70;;;;;;5017878;28;20164;-90
2023/08/29 04:06:49;;;;;;;22.33;19.73;;;16.80;91.00;;;;;;4999431;28;20184;-90
2023/08/29 04:09:16;;;;;;;22.87;20.57;;;16.80;91.20;;;;;;4999474;28;20170;-91
2023/08/29 04:11:41;;;;;;;23.43;19.63;;;16.80;91.20;;;;;;4998339;28;20167;-89
2023/08/29 04:14:07;;;;;;;21.00;18.80;;;16.80;91.90;;;;;;5015822;28;20206;-90
2023/08/29 04:16:32;;;;;;;21.80;18.73;;;16.80;91.90;;;;;;4998668;28;20265;-90
2023/08/29 04:18:58;;;;;;;21.57;19.37;;;16.80;92.70;;;;;;5015480;28;20212;-91
2023/08/29 04:21:24;;;;;;;21.00;18.63;;;16.80;92.50;;;;;;4999852;28;20281;-91
2023/08/29 04:23:50;;;;;;;20.83;18.63;;;16.80;91.40;;;;;;4998345;28;20193;-92
2023/08/29 04:26:16;;;;;;;19.80;17.70;;;16.90;92.00;;;;;;4998048;28;20185;-91
2023/08/29 04:28:41;;;;;;;21.17;18.03;;;16.80;91.40;;;;;;4998123;28;20511;-89
2023/08/29 04:31:11;;;;;;;19.37;17.37;;;16.90;92.00;;;;;;5014898;28;20189;-89
2023/08/29 04:34:01;;;;;;;19.50;17.60;;;16.90;92.70;;;;;;5014988;28;20182;-87
2023/08/29 04:36:30;;;;;;;21.23;18.37;;;16.90;92.10;;;;;;5000376;28;20281;-90
2023/08/29 04:38:55;;;;;;;21.27;19.07;;;16.70;92.60;;;;;;4997794;28;20190;-92
2023/08/29 04:41:21;;;;;;;22.47;20.23;;;16.80;92.40;;;;;;5001219;28;20186;-88
2023/08/29 04:43:47;;;;;;;22.13;18.83;;;16.90;90.20;;;;;;5017606;28;20184;-90
2023/08/29 04:46:13;;;;;;;24.37;21.77;;;16.80;88.90;;;;;;4999406;28;20257;-91
2023/08/29 04:48:38;;;;;;;23.17;20.50;;;16.90;88.80;;;;;;4999288;28;20177;-91
2023/08/29 04:51:04;;;;;;;24.40;21.90;;;16.90;84.80;;;;;;4998925;28;20173;-90
2023/08/29 04:53:31;;;;;;;21.67;19.37;;;16.90;82.50;;;;;;5004234;28;20179;-89
2023/08/29 04:56:04;;;;;;;21.70;19.47;;;16.90;86.00;;;;;;5001844;28;20183;-91
2023/08/29 04:58:30;;;;;;;20.70;18.27;;;16.70;90.60;;;;;;5019166;28;20541;-87
2023/08/29 05:00:57;;;;;;;23.37;19.33;;;16.70;92.10;;;;;;5004101;28;20216;-89
2023/08/29 05:03:22;;;;;;;20.87;18.03;;;16.60;92.90;;;;;;5007824;28;20178;-91
2023/08/29 05:05:48;;;;;;;20.83;18.63;;;16.50;94.50;;;;;;5008194;28;20174;-90
2023/08/29 05:08:14;;;;;;;20.77;18.63;;;16.50;95.70;;;;;;5002887;28;20189;-91
2023/08/29 05:10:43;;;;;;;23.47;19.73;;;16.60;95.60;;;;;;4997820;28;20181;-92
2023/08/29 05:13:11;;;;;;;21.93;19.63;;;16.70;93.70;;;;;;4997143;28;20282;-89
2023/08/29 05:15:37;;;;;;;21.40;19.33;;;16.80;91.70;;;;;;4997276;28;20200;-91
2023/08/29 05:18:06;;;;;;;22.87;20.47;;;16.90;88.10;;;;;;4997597;28;20305;-88
2023/08/29 05:20:32;;;;;;;22.30;19.80;;;16.90;85.70;;;;;;4998074;28;20177;-93
2023/08/29 05:23:04;;;;;;;24.80;21.20;;;16.90;82.80;;;;;;4998167;28;20179;-88
2023/08/29 05:25:31;;;;;;;23.17;20.63;;;16.80;83.90;;;;;;4996584;28;20166;-88
2023/08/29 05:27:56;;;;;;;26.30;22.67;;;16.90;82.40;;;;;;4996308;28;20239;-87
2023/08/29 05:30:23;;;;;;;24.70;21.80;;;16.90;82.60;;;;;;4999415;28;20263;-88
2023/08/29 05:32:49;;;;;;;23.93;21.47;;;16.80;82.50;;;;;;4998428;28;20189;-87
2023/08/29 05:35:14;;;;;;;23.83;20.90;;;16.80;83.60;;;;;;4997512;28;20179;-86
2023/08/29 05:37:40;;;;;;;26.27;22.40;;;16.80;83.70;;;;;;5014132;28;20759;-86
2023/08/29 05:40:08;;;;;;;23.60;21.10;;;16.70;83.10;;;;;;4997728;28;20171;-86
2023/08/29 05:42:34;;;;;;;23.30;20.57;;;16.70;85.80;;;;;;5003509;28;20190;-89
2023/08/29 05:44:59;;;;;;;22.03;19.83;;;16.60;89.00;;;;;;5007243;28;20198;-90
2023/08/29 05:47:25;;;;;;;23.87;21.00;;;16.60;91.30;;;;;;5000325;28;20265;-87
2023/08/29 05:49:52;;;;;;;23.87;21.13;;;16.60;90.20;;;;;;4999074;28;20330;-91
2023/08/29 05:52:17;;;;;;;22.40;20.10;;;16.60;88.00;;;;;;4998765;28;20713;-91
2023/08/29 05:54:43;;;;;;;25.07;21.63;;;16.60;87.80;;;;;;4999384;28;20272;-91
2023/08/29 05:57:09;;;;;;;22.03;19.70;;;16.60;88.10;;;;;;4998075;28;20221;-87
2023/08/29 05:59:35;;;;;;;23.57;20.97;;;16.70;88.10;;;;;;4998472;28;20277;-90
2023/08/29 06:02:00;;;;;;;23.83;20.43;;;16.70;86.40;;;;;;4999545;28;20230;-86
2023/08/29 06:04:26;;;;;;;23.23;19.57;;;16.70;84.80;;;;;;5008557;28;20222;-87
2023/08/29 06:06:52;;;;;;;24.00;20.93;;;16.70;88.70;;;;;;5035372;28;20198;-87
2023/08/29 06:09:18;;;;;;;23.50;20.43;;;16.70;89.20;;;;;;5018266;28;20192;-87
2023/08/29 06:11:45;;;;;;;21.33;19.00;;;16.80;85.80;;;;;;5033766;28;20231;-88
2023/08/29 06:14:10;;;;;;;20.00;17.93;;;16.90;84.90;;;;;;5007419;28;20178;-87
2023/08/29 06:16:37;;;;;;;19.83;17.90;;;16.90;80.80;;;;;;4980660;28;20300;-87
2023/08/29 06:19:04;;;;;;;19.47;17.57;;;16.90;81.30;;;;;;4996751;28;20171;-88
2023/08/29 06:21:31;;;;;;;20.33;18.23;;;16.80;80.40;;;;;;4998990;28;20173;-90
2023/08/29 06:23:57;;;;;;;20.57;18.57;;;16.80;77.60;;;;;;5004039;28;20250;-88
2023/08/29 06:26:23;;;;;;;20.00;17.93;;;16.60;80.30;;;;;;5005932;28;20600;-87
2023/08/29 06:28:49;;;;;;;21.83;18.20;;;16.60;81.80;;;;;;5005551;28;20178;-89
2023/08/29 06:31:15;;;;;;;20.67;17.37;;;16.50;83.80;;;;;;5005275;28;20227;-87
2023/08/29 06:33:41;;;;;;;18.50;16.47;;;16.30;88.00;;;;;;4983082;28;20238;-87
2023/08/29 06:36:08;;;;;;;18.57;16.57;;;16.40;90.20;;;;;;4991519;28;20236;-89
2023/08/29 06:38:36;;;;;;;18.63;16.73;;;16.50;90.30;;;;;;5003934;28;20174;-91
2023/08/29 06:41:04;;;;;;;20.43;17.03;;;16.50;91.00;;;;;;5007648;28;20197;-91
2023/08/29 06:43:30;;;;;;;19.00;17.00;;;16.60;92.70;;;;;;5009910;28;20212;-90
2023/08/29 06:45:56;;;;;;;18.27;16.47;;;16.70;93.60;;;;;;5010704;28;20198;-90
2023/08/29 06:48:23;;;;;;;19.43;16.23;;;16.90;92.80;;;;;;5003914;28;20241;-90
2023/08/29 06:50:53;;;;;;;16.60;14.90;;;17.00;92.50;;;;;;5003775;28;20264;-92
2023/08/29 06:53:27;;;;;;;17.03;15.33;;;17.20;91.80;;;;;;5002413;28;20189;-91
2023/08/29 06:55:53;;;;;;;16.57;14.27;;;17.30;89.20;;;;;;4999690;28;20776;-91
2023/08/29 06:58:18;;;;;;;15.20;13.33;;;17.40;72.60;;;;;;4999926;28;20265;-89
2023/08/29 07:00:45;;;;;;;15.63;13.83;;;17.60;70.90;;;;;;4999892;28;20204;-90
2023/08/29 07:03:11;;;;;;;15.20;13.67;;;17.60;67.00;;;;;;4999663;28;20174;-90
2023/08/29 07:05:36;;;;;;;15.93;14.30;;;17.80;60.10;;;;;;5000093;28;20175;-91
2023/08/29 07:08:03;;;;;;;15.57;14.03;;;17.80;58.40;;;;;;4999191;28;20648;-90
2023/08/29 07:10:29;;;;;;;16.23;14.53;;;17.70;58.30;;;;;;5000055;28;20170;-90
2023/08/29 07:12:55;;;;;;;15.47;13.97;;;17.60;60.40;;;;;;5000310;28;20645;-90
2023/08/29 07:15:20;;;;;;;14.73;13.03;;;17.60;61.10;;;;;;4999414;28;20196;-91
2023/08/29 07:17:46;;;;;;;13.30;12.00;;;17.60;62.60;;;;;;5000369;28;20770;-88
2023/08/29 07:20:12;;;;;;;13.27;11.83;;;17.80;60.50;;;;;;5000254;28;20196;-89
2023/08/29 07:22:43;;;;;;;14.07;12.77;;;17.80;61.20;;;;;;5018669;28;20260;-90
2023/08/29 07:25:11;;;;;;;13.20;12.00;;;17.90;59.60;;;;;;5000293;28;20200;-89
2023/08/29 07:27:37;;;;;;;11.53;10.37;;;18.00;58.90;;;;;;4999546;28;20226;-89
2023/08/29 07:30:03;;;;;;;12.07;10.97;;;18.00;60.80;;;;;;5000864;28;20176;-89
2023/08/29 07:32:30;;;;;;;11.90;10.80;;;18.00;59.60;;;;;;4999310;28;20251;-90
2023/08/29 07:34:56;;;;;;;11.77;10.67;;;18.20;58.30;;;;;;5000651;28;20170;-91
2023/08/29 07:37:23;;;;;;;11.87;10.73;;;18.30;52.90;;;;;;5002177;28;20280;-89
2023/08/29 07:39:49;;;;;;;12.33;11.13;;;18.40;48.80;;;;;;5007290;28;20170;-89
2023/08/29 07:42:16;;;;;;;11.97;10.77;;;18.50;43.80;;;;;;5001805;28;20215;-89
2023/08/29 07:44:43;;;;;;;12.80;11.57;;;18.50;39.50;;;;;;5015522;28;20183;-89
2023/08/29 07:47:09;;;;;;;11.50;10.33;;;18.50;36.70;;;;;;5006827;28;20230;-89
2023/08/29 07:49:35;;;;;;;12.63;11.20;;;18.40;38.10;;;;;;5002097;28;20177;-88
2023/08/29 07:52:02;;;;;;;11.77;10.57;;;18.40;36.30;;;;;;5000597;28;20180;-91
2023/08/29 07:54:28;;;;;;;12.33;11.13;;;18.30;38.90;;;;;;5005872;28;20180;-90
2023/08/29 07:56:53;;;;;;;11.00;10.00;;;18.30;41.90;;;;;;5020942;28;20247;-90
2023/08/29 07:59:20;;;;;;;10.67;9.57;;;18.30;40.40;;;;;;5021863;28;20208;-90
2023/08/29 08:01:48;;;;;;;11.10;10.00;;;18.30;41.00;;;;;;5014860;28;20178;-91
2023/08/29 08:04:16;;;;;;;9.97;9.10;;;18.30;42.50;;;;;;5015090;28;20166;-88
2023/08/29 08:06:42;;;;;;;10.20;9.20;;;18.30;41.00;;;;;;5009219;28;20187;-90
2023/08/29 08:09:10;;;;;;;9.80;8.90;;;18.40;40.30;;;;;;5001664;28;20177;-90
2023/08/29 08:11:35;;;;;;;10.43;9.33;;;18.40;37.00;;;;;;5000547;28;20264;-88
2023/08/29 08:14:04;;;;;;;10.27;9.37;;;18.40;35.20;;;;;;5000236;28;20599;-89
2023/08/29 08:16:30;;;;;;;9.87;8.80;;;18.50;34.90;;;;;;4998626;28;20207;-89
2023/08/29 08:18:56;;;;;;;9.80;8.90;;;18.50;32.80;;;;;;4998072;28;20183;-88
2023/08/29 08:21:22;;;;;;;9.67;8.67;;;18.50;33.00;;;;;;4998815;28;20189;-88
2023/08/29 08:23:48;;;;;;;9.70;8.70;;;18.50;31.40;;;;;;4998258;28;20271;-89
2023/08/29 08:26:14;;;;;;;8.63;7.73;;;18.50;33.80;;;;;;5017268;28;20207;-89
2023/08/29 08:28:40;;;;;;;8.53;7.73;;;18.50;34.20;;;;;;5021181;28;20182;-88
2023/08/29 08:31:06;;;;;;;9.50;8.47;;;18.50;32.60;;;;;;5022380;28;20260;-89
2023/08/29 08:33:32;;;;;;;9.03;8.13;;;18.50;34.10;;;;;;5020459;28;20684;-89
2023/08/29 08:35:58;;;;;;;9.83;8.73;;;18.60;33.80;;;;;;5008915;28;20180;-87
2023/08/29 08:38:23;;;;;;;9.10;8.13;;;18.60;32.50;;;;;;5005774;28;20187;-88
2023/08/29 08:41:43;;;;;;;8.43;7.63;;;18.70;28.00;;;;;;4984236;28;20258;-87
2023/08/29 08:44:48;;;;;;;7.60;6.90;;;18.70;27.80;;;;;;5015657;28;20235;-88
2023/08/29 08:47:16;;;;;;;7.80;7.00;;;18.70;27.40;;;;;;4983698;28;20553;-89
2023/08/29 08:49:42;;;;;;;7.60;6.87;;;18.80;28.80;;;;;;4999248;28;20716;-88
2023/08/29 08:52:10;;;;;;;6.30;5.43;;;18.90;22.90;;;;;;4998312;28;20223;-89
2023/08/29 08:54:42;;;;;;;6.50;5.80;;;19.00;21.20;;;;;;4998282;28;20187;-90
2023/08/29 08:57:11;;;;;;;8.10;5.57;;;18.90;20.50;;;;;;4997186;28;20304;-89
2023/08/29 08:59:37;;;;;;;8.03;6.27;;;18.70;22.80;;;;;;4996369;28;20176;-89
2023/08/29 09:02:03;;;;;;;7.97;6.10;;;19.00;22.60;;;;;;5015416;28;20174;-89
2023/08/29 09:04:29;;;;;;;7.10;5.43;;;19.00;21.90;;;;;;4996905;28;20187;-88
2023/08/29 09:06:54;;;;;;;5.37;4.03;;;19.20;15.10;;;;;;4997664;28;20180;-88
2023/08/29 09:09:23;;;;;;;5.20;3.83;;;19.30;8.60;;;;;;4996822;28;20177;-89
2023/08/29 09:11:54;;;;;;;6.17;5.20;;;19.30;8.20;;;;;;4997027;28;20569;-90
2023/08/29 09:14:20;;;;;;;5.83;5.13;;;19.10;14.80;;;;;;4997402;28;20194;-89
2023/08/29 09:16:46;;;;;;;5.53;4.33;;;19.10;14.90;;;;;;4996025;28;20212;-88
2023/08/29 09:19:16;;;;;;;6.23;5.10;;;19.20;11.80;;;;;;4997053;28;20769;-88
2023/08/29 09:21:44;;;;;;;6.00;4.80;;;19.20;15.30;;;;;;5011141;28;20213;-88
2023/08/29 09:24:13;;;;;;;4.60;3.70;;;19.20;14.40;;;;;;5014148;28;20177;-89
2023/08/29 09:26:40;;;;;;;4.60;4.07;;;19.20;12.70;;;;;;4998296;28;20174;-90
2023/08/29 09:29:19;;;;;;;7.70;4.37;;;19.10;12.90;;;;;;4997461;28;20176;-89
2023/08/29 09:31:49;;;;;;;5.50;5.00;;;19.00;16.50;;;;;;4997507;28;20172;-90
2023/08/29 09:34:31;;;;;;;6.00;5.40;;;19.20;12.90;;;;;;4997286;28;20220;-90
2023/08/29 09:36:58;;;;;;;6.97;5.53;;;19.50;10.20;;;;;;4997433;28;20579;-92
2023/08/29 09:39:24;;;;;;;7.53;5.57;;;19.60;3.80;;;;;;4981908;28;20171;-90
2023/08/29 09:42:05;;;;;;;6.80;6.10;;;19.70;6.50;;;;;;4997259;28;20211;-93
2023/08/29 09:44:39;;;;;;;7.03;6.33;;;19.70;3.20;;;;;;4998214;28;20316;-91
2023/08/29 09:47:06;;;;;;;8.13;7.20;;;19.80;6.10;;;;;;4997183;28;20189;-90
2023/08/29 09:49:47;;;;;;;6.40;5.80;;;19.90;4.40;;;;;;4996281;28;20175;-88
2023/08/29 09:52:16;;;;;;;6.00;5.33;;;19.90;3.70;;;;;;4997325;28;20173;-88
2023/08/29 09:54:50;;;;;;;5.60;5.00;;;20.00;1.00;;;;;;4999035;28;20173;-88
2023/08/29 09:57:28;;;;;;;6.30;5.10;;;20.10;1.00;;;;;;5002169;28;20209;-90
2023/08/29 09:59:57;;;;;;;5.27;4.13;;;20.10;1.00;;;;;;5001766;28;20212;-89
2023/08/29 10:02:28;;;;;;;6.00;4.90;;;20.20;1.00;;;;;;5000557;28;20182;-87
2023/08/29 10:05:00;;;;;;;5.87;5.37;;;20.30;1.00;;;;;;5000328;28;20194;-89
2023/08/29 10:07:30;;;;;;;4.57;3.73;;;20.50;1.00;;;;;;4981061;28;20179;-88
2023/08/29 10:09:56;;;;;;;4.97;4.20;;;20.40;1.00;;;;;;4981943;28;20186;-88
2023/08/29 10:12:22;;;;;;;5.70;4.07;;;20.40;1.00;;;;;;4981002;28;20172;-91
2023/08/29 10:14:49;;;;;;;5.80;4.03;;;20.50;1.00;;;;;;4983614;28;20209;-87
2023/08/29 10:17:15;;;;;;;5.90;5.00;;;20.70;1.00;;;;;;4984016;28;20212;-87
2023/08/29 10:19:43;;;;;;;4.93;4.43;;;20.70;1.00;;;;;;5000352;28;20169;-89
2023/08/29 10:22:10;;;;;;;4.70;3.93;;;20.80;1.00;;;;;;5001191;28;20181;-89
2023/08/29 10:24:36;;;;;;;4.90;3.53;;;20.80;1.00;;;;;;5003658;28;20259;-86
2023/08/29 10:27:05;;;;;;;6.43;3.63;;;20.80;1.00;;;;;;5003008;28;20187;-84
2023/08/29 10:29:32;;;;;;;5.07;4.10;;;21.00;1.00;;;;;;4997285;28;20171;-85
2023/08/29 10:32:00;;;;;;;5.23;4.73;;;21.00;1.00;;;;;;4998593;28;20643;-86
2023/08/29 10:34:32;;;;;;;4.70;4.13;;;20.90;1.00;;;;;;4998553;28;20185;-87
2023/08/29 10:36:59;;;;;;;4.93;4.50;;;21.00;1.00;;;;;;4999336;28;20284;-87
2023/08/29 10:39:26;;;;;;;5.33;3.83;;;21.00;1.00;;;;;;5000398;28;20174;-88
2023/08/29 10:41:56;;;;;;;5.70;4.03;;;21.00;1.00;;;;;;4999691;28;20195;-88
2023/08/29 10:44:31;;;;;;;4.77;4.20;;;20.90;1.00;;;;;;5001683;28;20171;-94
2023/08/29 10:47:31;;;;;;;4.77;3.70;;;20.80;1.00;;;;;;4997868;28;20273;-89
2023/08/29 10:50:06;;;;;;;5.57;3.90;;;20.80;1.00;;;;;;4996941;28;20280;-88
2023/08/29 10:52:41;;;;;;;5.77;3.73;;;20.90;1.00;;;;;;4996527;28;20197;-88
2023/08/29 10:55:20;;;;;;;4.73;3.93;;;21.10;1.00;;;;;;4984463;28;20190;-89
2023/08/29 10:57:52;;;;;;;4.13;3.60;;;21.40;1.00;;;;;;5012766;28;20209;-89
2023/08/29 11:00:41;;;;;;;4.63;3.80;;;21.50;1.00;;;;;;4980972;28;20308;-92
2023/08/29 11:03:06;;;;;;;4.40;3.67;;;21.30;1.00;;;;;;4974601;28;20186;-89
2023/08/29 11:05:38;;;;;;;5.47;3.80;;;21.40;1.00;;;;;;4978997;28;20210;-90
2023/08/29 11:08:22;;;;;;;6.23;4.30;;;21.40;1.00;;;;;;4979202;28;20190;-91
2023/08/29 11:11:09;;;;;;;6.73;4.50;;;21.50;1.00;;;;;;4983525;28;20254;-89
2023/08/29 11:13:55;;;;;;;4.37;3.97;;;21.60;1.00;;;;;;4983209;28;20268;-89
2023/08/29 11:16:21;;;;;;;5.57;3.60;;;21.60;1.00;;;;;;4980293;28;20262;-87
2023/08/29 11:18:47;;;;;;;5.23;4.67;;;21.80;1.00;;;;;;4982153;28;20175;-88
2023/08/29 11:21:16;;;;;;;5.93;4.40;;;21.90;1.00;;;;;;4981404;28;20305;-87
2023/08/29 11:23:43;;;;;;;4.73;4.07;;;21.90;1.00;;;;;;4979562;28;20243;-89
2023/08/29 11:26:09;;;;;;;4.90;4.20;;;21.90;1.00;;;;;;4979889;28;20171;-87
2023/08/29 11:28:45;;;;;;;6.23;4.67;;;21.90;1.00;;;;;;4978833;28;20265;-88
2023/08/29 11:31:12;;;;;;;4.17;3.77;;;22.00;1.00;;;;;;4996828;28;20219;-88
2023/08/29 11:33:38;;;;;;;5.17;4.30;;;22.20;1.00;;;;;;4979453;28;20174;-88
2023/08/29 11:36:09;;;;;;;4.90;4.07;;;22.40;1.00;;;;;;4998116;28;20635;-88
2023/08/29 11:38:36;;;;;;;4.77;3.57;;;22.50;1.00;;;;;;4980087;28;20182;-89
2023/08/29 11:41:06;;;;;;;4.57;3.70;;;22.50;1.00;;;;;;4980739;28;20190;-88
2023/08/29 11:43:33;;;;;;;4.67;4.17;;;22.60;1.00;;;;;;4979864;28;20216;-90
2023/08/29 11:46:03;;;;;;;5.83;3.70;;;22.90;1.00;;;;;;4980581;28;20199;-89
2023/08/29 11:48:32;;;;;;;6.00;3.40;;;22.90;1.00;;;;;;4983058;28;20189;-88
2023/08/29 11:51:06;;;;;;;5.43;4.20;;;23.00;1.00;;;;;;4980049;28;20179;-89
2023/08/29 11:53:34;;;;;;;4.97;4.17;;;23.00;1.00;;;;;;5005091;28;20185;-89
2023/08/29 11:56:05;;;;;;;5.03;3.30;;;23.20;1.00;;;;;;4997538;28;20185;-88
2023/08/29 11:58:34;;;;;;;3.90;3.40;;;23.30;1.00;;;;;;4998705;28;20681;-89
2023/08/29 12:01:07;;;;;;;4.50;3.77;;;23.30;1.00;;;;;;4998871;28;20544;-90
2023/08/29 12:03:37;;;;;;;4.63;3.70;;;23.10;1.00;;;;;;4999016;28;20260;-89
2023/08/29 12:06:10;;;;;;;3.70;3.10;;;23.00;1.00;;;;;;4998471;28;20209;-90
2023/08/29 12:08:36;;;;;;;6.30;3.40;;;22.90;1.00;;;;;;4994371;28;20260;-90
2023/08/29 12:11:02;;;;;;;3.93;3.00;;;22.90;1.00;;;;;;4999933;28;20175;-91
2023/08/29 12:13:28;;;;;;;5.30;3.40;;;22.80;1.00;;;;;;5000584;28;20170;-89
2023/08/29 12:15:53;;;;;;;6.73;3.60;;;22.60;1.00;;;;;;5001850;28;20202;-89
2023/08/29 12:18:24;;;;;;;4.63;3.50;;;22.50;1.00;;;;;;5001375;28;20269;-90
2023/08/29 12:20:50;;;;;;;4.60;3.10;;;22.20;1.00;;;;;;5001538;28;20236;-89
2023/08/29 12:23:27;;;;;;;4.37;3.97;;;22.10;1.00;;;;;;5004610;28;20182;-89
2023/08/29 12:25:55;;;;;;;6.60;5.90;;;21.60;1.00;;;;;;4999093;28;20203;-90
2023/08/29 12:28:23;;;;;;;5.73;4.63;;;21.40;1.00;;;;;;4998184;28;20167;-88
2023/08/29 12:30:48;;;;;;;6.50;5.07;;;21.10;1.00;;;;;;4997529;28;20547;-87
2023/08/29 12:33:15;;;;;;;7.00;4.57;;;21.00;1.00;;;;;;5028858;28;20163;-88
2023/08/29 12:35:42;;;;;;;5.47;4.30;;;20.90;1.00;;;;;;5020578;28;20264;-89
2023/08/29 12:38:09;;;;;;;7.47;5.57;;;20.90;1.00;;;;;;5021059;28;20219;-88
2023/08/29 12:40:37;;;;;;;6.13;4.30;;;20.90;1.00;;;;;;5021443;28;20186;-89
2023/08/29 12:43:06;;;;;;;5.73;4.27;;;20.90;1.00;;;;;;5019938;28;20191;-89
2023/08/29 12:45:32;;;;;;;7.20;4.40;;;20.90;1.00;;;;;;4994775;28;20255;-89